createdAt,value
2022-08-27T00:01:13.490Z,597.50
2022-08-27T00:03:39.915Z,594.80
2022-08-27T00:06:06.390Z,583.57
2022-08-27T00:08:33.323Z,598.23
2022-08-27T00:10:59.822Z,591.70
2022-08-27T00:13:26.277Z,586.80
2022-08-27T00:15:52.721Z,593.83
2022-08-27T00:18:22.559Z,564.90
2022-08-27T00:20:49.270Z,591.47
2022-08-27T00:23:15.704Z,594.13
2022-08-27T00:25:42.140Z,597.87
2022-08-27T00:28:08.683Z,584.83
2022-08-27T00:30:35.188Z,577.93
2022-08-27T00:33:01.656Z,580.97
2022-08-27T00:35:28.144Z,581.40
2022-08-27T00:37:54.590Z,568.27
2022-08-27T00:40:21.129Z,589.67
2022-08-27T00:42:47.639Z,591.93
2022-08-27T00:45:14.121Z,585.03
2022-08-27T00:47:40.604Z,567.53
2022-08-27T00:50:07.034Z,559.87
2022-08-27T00:52:33.493Z,559.00
2022-08-27T00:54:59.941Z,563.13
2022-08-27T00:57:26.384Z,578.30
2022-08-27T00:59:52.825Z,578.77
2022-08-27T01:02:19.389Z,587.07
2022-08-27T01:04:45.898Z,582.37
2022-08-27T01:07:12.354Z,553.27
2022-08-27T01:09:38.847Z,572.83
2022-08-27T01:12:05.301Z,590.00
2022-08-27T01:14:31.735Z,580.37
2022-08-27T01:16:58.196Z,586.10
2022-08-27T01:19:24.629Z,586.50
2022-08-27T01:21:51.063Z,576.40
2022-08-27T01:24:17.516Z,581.97
2022-08-27T01:26:43.978Z,569.27
2022-08-27T01:29:10.484Z,569.43
2022-08-27T01:31:37.000Z,589.77
2022-08-27T01:34:03.489Z,575.93
2022-08-27T01:36:29.971Z,593.00
2022-08-27T01:38:56.400Z,575.90
2022-08-27T01:41:24.044Z,575.07
2022-08-27T01:43:50.540Z,575.00
2022-08-27T01:46:17.073Z,580.70
2022-08-27T01:48:43.526Z,578.50
2022-08-27T01:51:09.986Z,569.80
2022-08-27T01:53:36.437Z,574.13
2022-08-27T01:56:02.883Z,581.63
2022-08-27T01:58:29.348Z,557.50
2022-08-27T02:00:56.259Z,568.83
2022-08-27T02:03:23.162Z,583.47
2022-08-27T02:05:49.592Z,588.47
2022-08-27T02:08:16.076Z,567.20
2022-08-27T02:10:42.526Z,583.57
2022-08-27T02:13:09.005Z,577.80
2022-08-27T02:15:35.427Z,589.53
2022-08-27T02:18:01.892Z,555.67
2022-08-27T02:20:29.410Z,586.37
2022-08-27T02:22:55.986Z,616.10
2022-08-27T02:25:22.439Z,616.77
2022-08-27T02:27:48.885Z,604.03
2022-08-27T02:30:15.404Z,620.00
2022-08-27T02:32:41.860Z,590.37
2022-08-27T02:35:08.302Z,599.13
2022-08-27T02:37:34.739Z,609.63
2022-08-27T02:40:01.230Z,633.37
2022-08-27T02:42:27.736Z,621.17
2022-08-27T02:44:54.165Z,624.00
2022-08-27T02:47:20.630Z,635.90
2022-08-27T02:49:47.059Z,633.30
2022-08-27T02:52:13.525Z,623.07
2022-08-27T02:54:40.725Z,603.40
2022-08-27T02:57:07.185Z,626.77
2022-08-27T02:59:33.632Z,615.67
2022-08-27T03:02:00.229Z,627.77
2022-08-27T03:04:26.795Z,638.47
2022-08-27T03:06:53.235Z,626.80
2022-08-27T03:09:19.675Z,625.60
2022-08-27T03:11:46.128Z,632.03
2022-08-27T03:14:12.574Z,624.10
2022-08-27T03:16:39.028Z,636.70
2022-08-27T03:19:05.480Z,627.87
2022-08-27T03:21:31.923Z,637.50
2022-08-27T03:23:58.387Z,638.20
2022-08-27T03:26:36.087Z,622.40
2022-08-27T03:29:02.615Z,636.40
2022-08-27T03:31:29.079Z,625.47
2022-08-27T03:33:55.577Z,635.77
2022-08-27T03:36:22.008Z,643.93
2022-08-27T03:38:48.468Z,647.33
2022-08-27T03:41:14.915Z,636.40
2022-08-27T03:43:41.383Z,640.20
2022-08-27T03:46:10.713Z,647.90
2022-08-27T03:48:48.170Z,651.50
2022-08-27T03:51:18.677Z,645.03
2022-08-27T03:53:45.108Z,637.20
2022-08-27T03:56:20.593Z,630.80
2022-08-27T03:58:57.501Z,649.63
2022-08-27T04:01:29.495Z,642.50
2022-08-27T04:03:55.985Z,634.33
2022-08-27T04:06:22.439Z,649.73
2022-08-27T04:08:48.892Z,639.80
2022-08-27T04:11:16.473Z,649.07
2022-08-27T04:13:42.949Z,647.00
2022-08-27T04:16:09.430Z,643.50
2022-08-27T04:18:36.003Z,652.33
2022-08-27T04:21:02.435Z,656.30
2022-08-27T04:23:28.911Z,650.53
2022-08-27T04:25:55.361Z,648.87
2022-08-27T04:28:21.804Z,645.80
2022-08-27T04:30:48.318Z,646.17
2022-08-27T04:33:14.837Z,635.80
2022-08-27T04:35:41.377Z,649.10
2022-08-27T04:38:07.899Z,646.07
2022-08-27T04:40:34.444Z,637.83
2022-08-27T04:43:00.970Z,645.83
2022-08-27T04:45:27.457Z,640.03
2022-08-27T04:47:54.161Z,626.70
2022-08-27T04:50:20.616Z,634.30
2022-08-27T04:52:47.063Z,634.40
2022-08-27T04:55:14.286Z,646.53
2022-08-27T04:57:40.812Z,632.00
2022-08-27T05:00:07.279Z,645.43
2022-08-27T05:02:33.763Z,644.40
2022-08-27T05:05:00.261Z,644.60
2022-08-27T05:07:26.869Z,640.70
2022-08-27T05:09:53.397Z,638.10
2022-08-27T05:12:19.891Z,645.67
2022-08-27T05:14:46.367Z,645.33
2022-08-27T05:17:12.879Z,648.03
2022-08-27T05:19:39.390Z,636.30
2022-08-27T05:22:05.862Z,638.80
2022-08-27T05:24:32.326Z,646.63
2022-08-27T05:26:58.785Z,646.03
2022-08-27T05:29:25.248Z,644.73
2022-08-27T05:31:51.763Z,643.70
2022-08-27T05:34:25.403Z,631.67
2022-08-27T05:36:54.098Z,633.23
2022-08-27T05:39:20.549Z,645.30
2022-08-27T05:41:47.230Z,635.87
2022-08-27T05:44:39.771Z,642.13
2022-08-27T05:47:00.124Z,634.20
2022-08-27T05:49:26.589Z,647.07
2022-08-27T05:51:53.094Z,650.70
2022-08-27T05:54:19.950Z,629.80
2022-08-27T05:56:46.586Z,637.90
2022-08-27T05:59:13.095Z,640.40
2022-08-27T06:01:39.583Z,650.27
2022-08-27T06:04:06.086Z,655.93
2022-08-27T06:06:32.562Z,645.33
2022-08-27T06:08:59.045Z,651.57
2022-08-27T06:11:25.485Z,657.17
2022-08-27T06:13:51.952Z,648.90
2022-08-27T06:16:18.481Z,654.43
2022-08-27T06:18:44.973Z,651.57
2022-08-27T06:21:11.439Z,650.57
2022-08-27T06:23:37.913Z,643.07
2022-08-27T06:26:04.367Z,652.80
2022-08-27T06:28:30.816Z,658.60
2022-08-27T06:30:57.302Z,640.20
2022-08-27T06:33:23.871Z,638.80
2022-08-27T06:35:50.323Z,645.40
2022-08-27T06:38:16.773Z,645.13
2022-08-27T06:40:43.235Z,639.50
2022-08-27T06:43:09.702Z,635.40
2022-08-27T06:45:36.135Z,644.43
2022-08-27T06:48:02.651Z,640.03
2022-08-27T06:50:29.125Z,645.27
2022-08-27T06:52:55.604Z,631.73
2022-08-27T06:55:22.136Z,643.00
2022-08-27T06:57:48.603Z,645.53
2022-08-27T07:00:15.119Z,648.40
2022-08-27T07:02:41.641Z,655.67
2022-08-27T07:05:08.140Z,650.17
2022-08-27T07:07:41.973Z,641.00
2022-08-27T07:10:10.854Z,634.67
2022-08-27T07:12:37.321Z,645.13
2022-08-27T07:15:03.815Z,635.23
2022-08-27T07:17:31.288Z,647.27
2022-08-27T07:19:57.811Z,632.30
2022-08-27T07:22:24.296Z,643.53
2022-08-27T07:24:50.796Z,651.43
2022-08-27T07:27:17.240Z,641.43
2022-08-27T07:29:43.696Z,648.23
2022-08-27T07:32:10.180Z,653.53
2022-08-27T07:34:36.667Z,645.30
2022-08-27T07:37:03.125Z,640.93
2022-08-27T07:39:29.575Z,640.97
2022-08-27T07:41:56.020Z,641.27
2022-08-27T07:44:26.230Z,653.47
2022-08-27T07:46:54.632Z,640.70
2022-08-27T07:49:21.112Z,639.50
2022-08-27T07:51:47.551Z,643.60
2022-08-27T07:54:14.004Z,647.63
2022-08-27T07:56:40.466Z,636.13
2022-08-27T07:59:06.903Z,648.20
2022-08-27T08:01:33.580Z,647.13
2022-08-27T08:04:00.113Z,643.60
2022-08-27T08:06:26.566Z,635.50
2022-08-27T08:08:53.040Z,636.10
2022-08-27T08:11:19.508Z,651.03
2022-08-27T08:13:45.953Z,640.50
2022-08-27T08:16:12.427Z,642.33
2022-08-27T08:18:38.876Z,649.33
2022-08-27T08:21:05.366Z,639.30
2022-08-27T08:23:31.814Z,653.23
2022-08-27T08:25:58.291Z,637.23
2022-08-27T08:28:24.758Z,649.80
2022-08-27T08:30:51.274Z,637.07
2022-08-27T08:33:17.761Z,639.23
2022-08-27T08:35:44.218Z,635.50
2022-08-27T08:38:10.799Z,643.80
2022-08-27T08:40:37.391Z,632.00
2022-08-27T08:43:03.878Z,636.53
2022-08-27T08:45:30.351Z,648.90
2022-08-27T08:47:56.838Z,642.77
2022-08-27T08:50:23.329Z,646.03
2022-08-27T08:52:49.805Z,646.70
2022-08-27T08:55:16.275Z,642.53
2022-08-27T08:57:42.725Z,647.80
2022-08-27T09:00:09.217Z,647.93
2022-08-27T09:02:35.665Z,646.93
2022-08-27T09:05:02.112Z,650.23
2022-08-27T09:07:28.539Z,635.60
2022-08-27T09:09:55.005Z,645.93
2022-08-27T09:12:21.453Z,641.53
2022-08-27T09:14:51.084Z,634.97
2022-08-27T09:17:17.533Z,625.90
2022-08-27T09:19:44.012Z,633.00
2022-08-27T09:22:10.464Z,633.27
2022-08-27T09:24:36.928Z,633.13
2022-08-27T09:27:03.408Z,630.47
2022-08-27T09:29:29.845Z,637.13
2022-08-27T09:31:56.280Z,634.17
2022-08-27T09:34:22.755Z,630.70
2022-08-27T09:36:49.218Z,637.40
2022-08-27T09:39:16.722Z,644.53
2022-08-27T09:41:43.193Z,630.47
2022-08-27T09:44:09.661Z,639.13
2022-08-27T09:46:36.135Z,635.27
2022-08-27T09:49:02.645Z,627.90
2022-08-27T09:51:29.110Z,628.57
2022-08-27T09:53:55.563Z,637.30
2022-08-27T09:56:22.049Z,639.23
2022-08-27T09:58:48.509Z,632.60
2022-08-27T10:01:15.063Z,640.73
2022-08-27T10:03:41.664Z,640.30
2022-08-27T10:06:08.154Z,641.23
2022-08-27T10:08:34.820Z,632.60
2022-08-27T10:11:01.337Z,635.13
2022-08-27T10:13:27.792Z,641.60
2022-08-27T10:15:54.264Z,632.30
2022-08-27T10:18:20.723Z,637.90
2022-08-27T10:20:47.161Z,632.97
2022-08-27T10:23:13.625Z,645.63
2022-08-27T10:25:40.082Z,632.30
2022-08-27T10:28:06.526Z,642.87
2022-08-27T10:30:32.970Z,632.40
2022-08-27T10:32:59.406Z,642.07
2022-08-27T10:35:30.519Z,640.23
2022-08-27T10:37:57.040Z,634.97
2022-08-27T10:40:23.577Z,640.30
2022-08-27T10:42:50.074Z,633.27
2022-08-27T10:45:31.114Z,640.90
2022-08-27T10:47:58.047Z,644.40
2022-08-27T10:50:27.525Z,641.50
2022-08-27T10:52:53.982Z,639.60
2022-08-27T10:55:20.443Z,636.80
2022-08-27T10:57:56.738Z,641.10
2022-08-27T11:00:26.715Z,619.27
2022-08-27T11:02:53.201Z,629.37
2022-08-27T11:05:19.822Z,631.37
2022-08-27T11:07:46.297Z,636.77
2022-08-27T11:10:12.774Z,629.87
2022-08-27T11:12:39.236Z,635.23
2022-08-27T11:15:08.858Z,631.80
2022-08-27T11:17:39.155Z,629.90
2022-08-27T11:20:05.628Z,640.77
2022-08-27T11:22:32.110Z,639.17
2022-08-27T11:24:58.593Z,639.67
2022-08-27T11:27:25.027Z,629.53
2022-08-27T11:29:51.478Z,626.93
2022-08-27T11:32:26.433Z,636.60
2022-08-27T11:34:52.914Z,639.63
2022-08-27T11:37:19.347Z,627.60
2022-08-27T11:39:49.780Z,636.07
2022-08-27T11:42:18.109Z,634.50
2022-08-27T11:44:44.583Z,640.03
2022-08-27T11:47:11.124Z,633.63
2022-08-27T11:49:37.642Z,639.37
2022-08-27T11:52:04.089Z,636.47
2022-08-27T11:54:30.544Z,627.83
2022-08-27T11:56:56.997Z,631.00
2022-08-27T11:59:23.483Z,637.87
2022-08-27T12:01:49.947Z,628.70
2022-08-27T12:04:16.461Z,649.43
2022-08-27T12:06:42.970Z,633.57
2022-08-27T12:09:09.404Z,640.00
2022-08-27T12:11:35.877Z,638.43
2022-08-27T12:14:02.302Z,628.43
2022-08-27T12:16:28.806Z,631.13
2022-08-27T12:18:55.265Z,629.33
2022-08-27T12:21:21.745Z,630.80
2022-08-27T12:23:49.036Z,631.83
2022-08-27T12:26:15.497Z,630.57
2022-08-27T12:28:41.948Z,636.40
2022-08-27T12:31:08.430Z,628.10
2022-08-27T12:33:34.895Z,635.50
2022-08-27T12:36:01.396Z,626.00
2022-08-27T12:38:28.893Z,617.93
2022-08-27T12:40:55.373Z,627.93
2022-08-27T12:43:21.854Z,627.33
2022-08-27T12:45:48.305Z,615.03
2022-08-27T12:48:14.743Z,624.00
2022-08-27T12:50:41.211Z,619.47
2022-08-27T12:53:07.644Z,627.40
2022-08-27T12:55:34.115Z,629.00
2022-08-27T13:00:36.032Z,635.03
2022-08-27T13:03:02.603Z,629.50
2022-08-27T13:05:29.096Z,623.97
2022-08-27T13:07:55.538Z,637.57
2022-08-27T13:10:22.003Z,619.67
2022-08-27T13:12:48.448Z,634.13
2022-08-27T13:15:15.788Z,630.10
2022-08-27T13:17:42.611Z,629.50
2022-08-27T13:20:09.116Z,633.63
2022-08-27T13:22:35.555Z,634.83
2022-08-27T13:25:04.565Z,624.83
2022-08-27T13:27:31.071Z,629.07
2022-08-27T13:29:57.556Z,625.67
2022-08-27T13:32:24.030Z,627.03
2022-08-27T13:34:50.506Z,630.13
2022-08-27T13:37:16.968Z,624.43
2022-08-27T13:39:43.442Z,627.27
2022-08-27T13:42:09.975Z,628.10
2022-08-27T13:44:36.464Z,633.13
2022-08-27T13:47:03.397Z,629.43
2022-08-27T13:49:29.955Z,619.83
2022-08-27T13:51:56.471Z,619.07
2022-08-27T13:54:23.028Z,616.63
2022-08-27T13:59:31.387Z,631.80
2022-08-27T14:01:57.910Z,629.83
2022-08-27T14:04:24.464Z,620.17
2022-08-27T14:06:50.916Z,627.70
2022-08-27T14:09:17.375Z,638.90
2022-08-27T14:11:43.818Z,636.83
2022-08-27T14:14:10.254Z,616.17
2022-08-27T14:16:36.708Z,616.90
2022-08-27T14:19:03.153Z,639.23
2022-08-27T14:21:29.619Z,625.67
2022-08-27T14:23:56.044Z,627.83
2022-08-27T14:26:22.590Z,629.13
2022-08-27T14:28:49.010Z,630.67
2022-08-27T14:31:15.501Z,633.00
2022-08-27T14:33:41.973Z,635.73
2022-08-27T14:36:08.414Z,631.70
2022-08-27T14:38:34.843Z,630.57
2022-08-27T14:41:01.302Z,626.40
2022-08-27T14:43:27.749Z,628.23
2022-08-27T14:45:54.195Z,624.30
2022-08-27T14:48:20.649Z,633.80
2022-08-27T14:50:55.046Z,632.83
2022-08-27T14:53:21.467Z,624.00
2022-08-27T14:55:52.092Z,631.70
2022-08-27T14:58:18.751Z,633.23
2022-08-27T15:00:45.206Z,631.07
2022-08-27T15:03:11.646Z,623.80
2022-08-27T15:05:38.105Z,628.20
2022-08-27T15:08:04.646Z,628.00
2022-08-27T15:10:31.120Z,625.80
2022-08-27T15:12:57.560Z,619.77
2022-08-27T15:15:23.987Z,624.50
2022-08-27T15:17:50.465Z,622.37
2022-08-27T15:20:20.226Z,631.30
2022-08-27T15:22:47.065Z,630.40
2022-08-27T15:25:13.505Z,634.50
2022-08-27T15:27:39.939Z,626.30
2022-08-27T15:30:06.858Z,630.93
2022-08-27T15:32:33.322Z,626.00
2022-08-27T15:34:59.757Z,623.50
2022-08-27T15:37:26.248Z,629.60
2022-08-27T15:39:52.746Z,636.73
2022-08-27T15:42:19.240Z,628.50
2022-08-27T15:44:45.825Z,640.50
2022-08-27T15:47:15.351Z,629.60
2022-08-27T15:49:44.110Z,637.47
2022-08-27T15:52:10.603Z,640.20
2022-08-27T15:54:40.633Z,633.30
2022-08-27T15:57:07.090Z,638.70
2022-08-27T15:59:33.529Z,633.37
2022-08-27T16:02:01.054Z,627.97
2022-08-27T16:04:27.728Z,635.33
2022-08-27T16:06:54.182Z,635.80
2022-08-27T16:09:20.622Z,630.20
2022-08-27T16:11:47.075Z,625.17
2022-08-27T16:14:13.526Z,639.13
2022-08-27T16:16:40.006Z,631.30
2022-08-27T16:19:06.482Z,629.00
2022-08-27T16:21:32.937Z,629.53
2022-08-27T16:23:59.404Z,624.40
2022-08-27T16:26:25.856Z,633.53
2022-08-27T16:28:52.296Z,626.93
2022-08-27T16:31:18.798Z,630.50
2022-08-27T16:33:45.283Z,634.80
2022-08-27T16:36:11.743Z,624.00
2022-08-27T16:38:38.178Z,628.03
2022-08-27T16:41:04.635Z,632.00
2022-08-27T16:43:31.090Z,630.23
2022-08-27T16:45:57.563Z,630.80
2022-08-27T16:48:26.433Z,618.93
2022-08-27T16:50:52.872Z,619.27
2022-08-27T16:53:19.317Z,625.93
2022-08-27T16:55:45.764Z,630.77
2022-08-27T16:58:12.460Z,614.70
2022-08-27T17:00:39.069Z,629.90
2022-08-27T17:03:05.533Z,625.30
2022-08-27T17:05:34.136Z,633.60
2022-08-27T17:08:02.478Z,624.37
2022-08-27T17:10:29.279Z,612.50
2022-08-27T17:12:55.717Z,623.37
2022-08-27T17:15:22.180Z,619.83
2022-08-27T17:17:48.617Z,623.47
2022-08-27T17:20:15.252Z,630.57
2022-08-27T17:22:41.846Z,622.50
2022-08-27T17:25:08.291Z,629.03
2022-08-27T17:27:34.751Z,627.53
2022-08-27T17:30:01.197Z,617.67
2022-08-27T17:32:27.650Z,622.10
2022-08-27T17:34:54.093Z,626.33
2022-08-27T17:37:20.581Z,627.53
2022-08-27T17:39:47.030Z,626.40
2022-08-27T17:42:13.482Z,625.53
2022-08-27T17:44:39.916Z,616.80
2022-08-27T17:47:06.400Z,619.90
2022-08-27T17:49:32.936Z,624.73
2022-08-27T17:51:59.452Z,626.83
2022-08-27T17:54:25.875Z,617.87
2022-08-27T17:56:52.357Z,623.70
2022-08-27T17:59:18.903Z,614.90
2022-08-27T18:01:45.441Z,608.97
2022-08-27T18:04:12.238Z,620.40
2022-08-27T18:06:38.704Z,612.67
2022-08-27T18:09:05.146Z,627.00
2022-08-27T18:11:31.596Z,616.30
2022-08-27T18:14:01.519Z,625.03
2022-08-27T18:16:30.721Z,620.60
2022-08-27T18:18:57.205Z,611.10
2022-08-27T18:21:25.091Z,610.47
2022-08-27T18:23:52.335Z,612.87
2022-08-27T18:26:18.798Z,611.20
2022-08-27T18:28:45.276Z,611.07
2022-08-27T18:31:11.786Z,607.47
2022-08-27T18:33:38.304Z,614.57
2022-08-27T18:36:06.309Z,623.17
2022-08-27T18:38:32.857Z,622.80
2022-08-27T18:40:59.318Z,622.37
2022-08-27T18:43:26.099Z,624.30
2022-08-27T18:45:52.589Z,621.50
2022-08-27T18:48:19.082Z,613.27
2022-08-27T18:50:45.529Z,626.03
2022-08-27T18:53:12.018Z,613.20
2022-08-27T18:55:38.515Z,612.00
2022-08-27T18:58:05.084Z,624.57
2022-08-27T19:00:31.567Z,617.13
2022-08-27T19:02:58.036Z,614.17
2022-08-27T19:05:24.509Z,621.83
2022-08-27T19:07:51.021Z,629.40
2022-08-27T19:10:18.242Z,620.67
2022-08-27T19:12:44.768Z,617.63
2022-08-27T19:15:11.217Z,620.53
2022-08-27T19:17:37.708Z,620.20
2022-08-27T19:20:04.193Z,616.60
2022-08-27T19:22:30.716Z,609.53
2022-08-27T19:24:57.159Z,609.07
2022-08-27T19:27:25.032Z,614.20
2022-08-27T19:29:51.667Z,624.00
2022-08-27T19:32:18.123Z,622.33
2022-08-27T19:34:44.549Z,612.23
2022-08-27T19:37:10.990Z,610.33
2022-08-27T19:39:37.418Z,610.60
2022-08-27T19:42:03.868Z,607.90
2022-08-27T19:44:30.306Z,603.87
2022-08-27T19:46:56.773Z,612.47
2022-08-27T19:49:23.234Z,608.90
2022-08-27T19:51:49.683Z,605.03
2022-08-27T19:54:16.114Z,601.23
2022-08-27T19:56:42.550Z,607.13
2022-08-27T19:59:20.140Z,600.17
2022-08-27T20:01:47.959Z,612.60
2022-08-27T20:04:14.431Z,614.10
2022-08-27T20:06:40.968Z,603.50
2022-08-27T20:09:07.424Z,607.30
2022-08-27T20:11:33.987Z,609.17
2022-08-27T20:14:00.428Z,613.93
2022-08-27T20:16:26.910Z,608.60
2022-08-27T20:18:55.560Z,608.13
2022-08-27T20:21:23.763Z,615.83
2022-08-27T20:23:50.194Z,605.90
2022-08-27T20:26:16.683Z,607.47
2022-08-27T20:28:43.602Z,610.50
2022-08-27T20:31:10.282Z,618.53
2022-08-27T20:33:36.775Z,608.87
2022-08-27T20:36:03.266Z,621.63
2022-08-27T20:38:29.711Z,619.13
2022-08-27T20:40:56.184Z,608.13
2022-08-27T20:43:22.661Z,604.40
2022-08-27T20:45:49.190Z,615.40
2022-08-27T20:48:15.678Z,608.07
2022-08-27T20:50:42.160Z,605.03
2022-08-27T20:53:08.632Z,606.37
2022-08-27T20:55:35.081Z,606.17
2022-08-27T20:58:06.334Z,607.40
2022-08-27T21:00:33.299Z,602.53
2022-08-27T21:02:59.791Z,603.20
2022-08-27T21:05:26.255Z,610.70
2022-08-27T21:07:52.738Z,613.13
2022-08-27T21:10:19.223Z,604.40
2022-08-27T21:12:45.708Z,605.60
2022-08-27T21:15:12.335Z,615.60
2022-08-27T21:17:38.950Z,612.33
2022-08-27T21:20:05.418Z,609.00
2022-08-27T21:22:31.870Z,603.20
2022-08-27T21:24:58.327Z,619.67
2022-08-27T21:27:24.821Z,604.90
2022-08-27T21:29:51.429Z,604.97
2022-08-27T21:32:17.887Z,611.27
2022-08-27T21:34:44.331Z,605.10
2022-08-27T21:37:10.803Z,615.00
2022-08-27T21:39:37.240Z,610.70
2022-08-27T21:42:03.684Z,612.23
2022-08-27T21:44:30.163Z,609.83
2022-08-27T21:46:56.704Z,618.23
2022-08-27T21:49:23.190Z,611.00
2022-08-27T21:51:49.685Z,612.00
2022-08-27T21:54:16.260Z,609.53
2022-08-27T21:56:43.115Z,613.90
2022-08-27T21:59:09.555Z,615.03
2022-08-27T22:01:36.308Z,601.13
2022-08-27T22:04:02.775Z,616.50
2022-08-27T22:06:29.215Z,602.73
2022-08-27T22:08:55.649Z,603.17
2022-08-27T22:11:24.218Z,608.53
2022-08-27T22:13:50.765Z,608.53
2022-08-27T22:16:17.280Z,601.00
2022-08-27T22:18:43.851Z,595.60
2022-08-27T22:21:10.313Z,608.33
2022-08-27T22:23:36.745Z,621.60
2022-08-27T22:26:03.208Z,609.33
2022-08-27T22:28:29.648Z,607.70
2022-08-27T22:30:56.105Z,602.30
2022-08-27T22:33:22.566Z,613.10
2022-08-27T22:35:49.011Z,609.83
2022-08-27T22:38:15.495Z,602.80
2022-08-27T22:40:41.973Z,598.63
2022-08-27T22:43:08.524Z,606.60
2022-08-27T22:45:34.980Z,599.77
2022-08-27T22:48:01.416Z,599.80
2022-08-27T22:50:27.878Z,598.97
2022-08-27T22:52:54.361Z,601.57
2022-08-27T22:55:20.822Z,595.40
2022-08-27T22:57:47.269Z,594.50
2022-08-27T23:00:13.727Z,604.77
2022-08-27T23:02:40.163Z,603.40
2022-08-27T23:05:06.969Z,599.80
2022-08-27T23:07:33.565Z,600.73
2022-08-27T23:10:00.060Z,603.40
2022-08-27T23:12:26.808Z,589.50
2022-08-27T23:14:53.259Z,592.60
2022-08-27T23:17:19.713Z,593.60
2022-08-27T23:19:46.150Z,598.27
2022-08-27T23:22:12.601Z,598.60
2022-08-27T23:24:39.050Z,593.60
2022-08-27T23:27:05.504Z,588.47
2022-08-27T23:29:31.949Z,597.20
2022-08-27T23:31:58.413Z,583.60
2022-08-27T23:34:24.850Z,599.93
2022-08-27T23:36:51.303Z,588.03
2022-08-27T23:39:17.742Z,592.93
2022-08-27T23:41:44.186Z,580.93
2022-08-27T23:44:10.619Z,589.83
2022-08-27T23:46:37.150Z,590.00
2022-08-27T23:49:03.634Z,588.57
2022-08-27T23:51:30.079Z,582.23
2022-08-27T23:53:56.505Z,595.60
2022-08-27T23:56:23.071Z,595.93
2022-08-27T23:58:56.639Z,597.43
